createdAt,value
2022-09-17T00:04:36.679Z,11.78
2022-09-17T00:12:10.527Z,11.80
2022-09-17T00:19:45.619Z,11.83
2022-09-17T00:27:19.210Z,11.81
2022-09-17T00:34:54.590Z,11.87
2022-09-17T00:42:28.550Z,11.87
2022-09-17T00:50:06.995Z,11.86
2022-09-17T00:57:41.801Z,11.89
2022-09-17T01:05:17.940Z,11.88
2022-09-17T01:13:06.319Z,11.94
2022-09-17T01:21:25.650Z,11.96
2022-09-17T01:29:14.589Z,11.98
2022-09-17T01:37:00.633Z,11.98
2022-09-17T01:44:41.664Z,12.07
2022-09-17T01:52:17.568Z,12.12
2022-09-17T01:59:56.874Z,12.19
2022-09-17T02:07:33.876Z,12.16
2022-09-17T02:15:14.775Z,12.18
2022-09-17T02:22:54.126Z,12.20
2022-09-17T02:30:27.927Z,12.22
2022-09-17T02:38:03.329Z,12.23
2022-09-17T02:45:48.602Z,12.23
2022-09-17T02:53:38.333Z,12.26
2022-09-17T03:01:32.819Z,12.26
2022-09-17T03:09:08.036Z,12.30
2022-09-17T03:16:41.843Z,12.31
2022-09-17T03:24:17.103Z,12.32
2022-09-17T03:31:51.099Z,12.33
2022-09-17T03:39:26.229Z,12.34
2022-09-17T03:46:59.902Z,12.33
2022-09-17T03:54:35.032Z,12.32
2022-09-17T04:02:08.942Z,12.33
2022-09-17T04:09:46.645Z,12.35
2022-09-17T04:17:20.440Z,12.36
2022-09-17T04:24:55.662Z,12.34
2022-09-17T04:32:29.387Z,12.34
2022-09-17T04:40:08.152Z,12.35
2022-09-17T04:47:42.232Z,12.39
2022-09-17T04:55:18.173Z,12.41
2022-09-17T05:02:55.664Z,12.40
2022-09-17T05:10:30.988Z,12.47
2022-09-17T05:18:05.162Z,12.47
2022-09-17T05:25:40.333Z,12.52
2022-09-17T05:33:13.838Z,12.57
2022-09-17T05:40:50.171Z,12.59
2022-09-17T05:48:23.972Z,12.55
2022-09-17T05:55:59.945Z,12.50
2022-09-17T06:03:33.890Z,12.51
2022-09-17T06:11:09.779Z,12.49
2022-09-17T06:18:43.474Z,12.51
2022-09-17T06:26:19.051Z,12.46
2022-09-17T06:33:54.181Z,12.50
2022-09-17T06:41:29.417Z,12.53
2022-09-17T06:49:03.470Z,12.54
2022-09-17T06:56:38.660Z,12.63
2022-09-17T07:04:12.359Z,12.69
2022-09-17T07:11:47.535Z,12.74
2022-09-17T11:54:56.599Z,15.27
2022-09-17T12:02:44.290Z,15.21
2022-09-17T12:10:39.872Z,15.43
2022-09-17T12:18:37.399Z,15.30
2022-09-17T12:26:29.314Z,15.50
2022-09-17T12:34:14.522Z,15.56
2022-09-17T12:42:01.293Z,15.52
2022-09-17T12:50:03.776Z,15.60
2022-09-17T12:57:49.830Z,15.49
2022-09-17T13:05:55.133Z,15.57
2022-09-17T13:13:39.110Z,15.61
2022-09-17T13:21:16.711Z,15.70
2022-09-17T13:28:53.110Z,15.85
2022-09-17T13:36:46.719Z,15.88
2022-09-17T13:44:23.722Z,15.69
2022-09-17T13:51:57.783Z,15.71
2022-09-17T13:59:32.893Z,15.90
2022-09-17T14:07:21.324Z,15.96
2022-09-17T14:14:56.338Z,16.12
2022-09-17T14:22:30.856Z,16.06
2022-09-17T14:30:13.582Z,15.73
2022-09-17T14:37:53.838Z,15.46
2022-09-17T14:45:34.587Z,15.52
2022-09-17T14:53:13.853Z,15.67
2022-09-17T15:00:56.152Z,15.56
2022-09-17T15:08:30.279Z,15.46
2022-09-17T15:16:11.251Z,15.39
2022-09-17T15:23:46.116Z,15.24
2022-09-17T15:31:21.571Z,15.18
2022-09-17T15:38:55.721Z,15.07
2022-09-17T15:46:33.357Z,14.84
2022-09-17T15:54:11.084Z,14.66
2022-09-17T16:01:58.331Z,14.21
2022-09-17T16:09:48.087Z,14.03
2022-09-17T16:17:29.299Z,13.66
2022-09-17T16:25:03.218Z,13.36
2022-09-17T16:33:11.751Z,13.32
2022-09-17T16:40:47.740Z,13.23
2022-09-17T16:48:22.783Z,13.14
2022-09-17T16:55:56.408Z,12.98
2022-09-17T17:03:31.603Z,12.99
2022-09-17T17:11:05.462Z,12.88
2022-09-17T17:18:43.514Z,12.82
2022-09-17T17:26:17.579Z,12.66
2022-09-17T17:33:52.603Z,12.46
2022-09-17T17:41:28.241Z,12.27
2022-09-17T17:49:03.386Z,12.23
2022-09-17T17:56:37.165Z,12.22
2022-09-17T18:04:12.158Z,12.01
2022-09-17T18:11:45.798Z,12.04
2022-09-17T18:19:21.265Z,11.99
2022-09-17T18:26:55.051Z,11.81
2022-09-17T18:34:30.344Z,11.88
2022-09-17T18:42:04.236Z,11.81
2022-09-17T18:49:39.280Z,11.85
2022-09-17T18:57:12.993Z,11.82
2022-09-17T19:04:48.073Z,11.79
2022-09-17T19:12:21.553Z,11.81
2022-09-17T19:19:56.682Z,11.76
2022-09-17T19:27:31.314Z,11.75
2022-09-17T19:35:08.769Z,11.74
2022-09-17T19:47:21.410Z,11.79
2022-09-17T19:54:55.051Z,11.75
2022-09-17T20:02:30.166Z,11.76
2022-09-17T20:10:05.311Z,11.70
2022-09-17T20:17:40.675Z,11.70
2022-09-17T20:25:14.578Z,11.72
2022-09-17T20:32:50.408Z,11.74
2022-09-17T20:40:24.086Z,11.73
2022-09-17T20:47:59.075Z,11.66
2022-09-17T20:55:32.530Z,11.69
2022-09-17T21:03:07.727Z,11.57
2022-09-17T21:10:45.146Z,11.60
2022-09-17T21:18:20.167Z,11.52
2022-09-17T21:25:53.674Z,11.45
2022-09-17T21:33:28.702Z,11.51
2022-09-17T21:41:03.044Z,11.56
2022-09-17T21:48:44.115Z,11.50
2022-09-17T21:56:19.442Z,11.46
2022-09-17T22:03:57.119Z,11.44
2022-09-17T22:11:32.599Z,11.46
2022-09-17T22:19:08.742Z,11.45
2022-09-17T22:26:44.930Z,11.47
2022-09-17T22:34:21.682Z,11.45
2022-09-17T22:41:56.432Z,11.45
2022-09-17T22:49:31.402Z,11.51
2022-09-17T22:57:05.134Z,11.50
2022-09-17T23:04:40.311Z,11.50
2022-09-17T23:12:13.948Z,11.51
2022-09-17T23:19:48.887Z,11.51
2022-09-17T23:27:22.544Z,11.53
2022-09-17T23:34:57.703Z,11.54
2022-09-17T23:42:35.837Z,11.54
2022-09-17T23:50:12.251Z,11.54
2022-09-17T23:57:46.011Z,11.53
